Terminal Aerodrome Forecast
Issued by NWS Charleston, WV

Home | Current Version | Previous Version | Text Only | Print | Product List | Glossary On
Versions: 1 2 3 4 5 6 7 8 9 10 11 12 13 14 15 16 17 18 19 20 21 22 23 24 25
000
FTUS41 KRLX 060539
TAFHTS
TAF
KHTS 060539Z 0606/0706 33004KT P6SM SCT050
     FM061300 33007KT P6SM BKN050
     FM070100 32004KT P6SM SCT060
     FM070500 00000KT P6SM FEW060=

USA.gov is the U.S. government's official web portal to all federal, state and local government web resources and services.